sensor_id;sensor_type;location;lat;lon;timestamp;P1;durP1;ratioP1;P2;durP2;ratioP2
1775;SDS011;885;42.626;23.200;2022-10-16T00:00:32;6.00;;;5.20;;
1775;SDS011;885;42.626;23.200;2022-10-16T00:03:02;6.07;;;4.70;;
1775;SDS011;885;42.626;23.200;2022-10-16T00:05:29;6.47;;;5.63;;
1775;SDS011;885;42.626;23.200;2022-10-16T00:07:56;7.37;;;5.23;;
1775;SDS011;885;42.626;23.200;2022-10-16T00:10:23;5.60;;;4.40;;
1775;SDS011;885;42.626;23.200;2022-10-16T00:12:50;5.67;;;5.07;;
1775;SDS011;885;42.626;23.200;2022-10-16T00:15:17;5.83;;;5.20;;
1775;SDS011;885;42.626;23.200;2022-10-16T00:17:43;5.40;;;4.90;;
1775;SDS011;885;42.626;23.200;2022-10-16T00:20:12;7.83;;;6.30;;
1775;SDS011;885;42.626;23.200;2022-10-16T00:22:38;6.67;;;5.27;;
1775;SDS011;885;42.626;23.200;2022-10-16T00:25:05;5.03;;;4.53;;
1775;SDS011;885;42.626;23.200;2022-10-16T00:27:33;5.73;;;4.67;;
1775;SDS011;885;42.626;23.200;2022-10-16T00:30:00;7.00;;;4.77;;
1775;SDS011;885;42.626;23.200;2022-10-16T00:32:27;5.13;;;4.40;;
1775;SDS011;885;42.626;23.200;2022-10-16T00:34:53;4.53;;;4.13;;
1775;SDS011;885;42.626;23.200;2022-10-16T00:37:22;4.20;;;3.77;;
1775;SDS011;885;42.626;23.200;2022-10-16T00:39:48;5.90;;;4.23;;
1775;SDS011;885;42.626;23.200;2022-10-16T00:42:17;4.07;;;3.67;;
1775;SDS011;885;42.626;23.200;2022-10-16T00:44:47;5.13;;;4.10;;
1775;SDS011;885;42.626;23.200;2022-10-16T00:47:19;4.73;;;4.00;;
1775;SDS011;885;42.626;23.200;2022-10-16T00:49:49;6.07;;;4.80;;
1775;SDS011;885;42.626;23.200;2022-10-16T00:52:19;5.63;;;4.40;;
1775;SDS011;885;42.626;23.200;2022-10-16T00:54:47;5.93;;;5.23;;
1775;SDS011;885;42.626;23.200;2022-10-16T00:57:16;6.73;;;4.80;;
1775;SDS011;885;42.626;23.200;2022-10-16T00:59:43;6.07;;;5.57;;
1775;SDS011;885;42.626;23.200;2022-10-16T01:02:11;5.13;;;4.40;;
1775;SDS011;885;42.626;23.200;2022-10-16T01:04:54;7.03;;;4.20;;
1775;SDS011;885;42.626;23.200;2022-10-16T01:07:27;5.67;;;4.70;;
1775;SDS011;885;42.626;23.200;2022-10-16T01:13:11;5.77;;;4.60;;
1775;SDS011;885;42.626;23.200;2022-10-16T01:15:45;6.57;;;4.73;;
1775;SDS011;885;42.626;23.200;2022-10-16T01:18:21;6.53;;;4.90;;
1775;SDS011;885;42.626;23.200;2022-10-16T01:20:59;6.57;;;4.67;;
1775;SDS011;885;42.626;23.200;2022-10-16T01:23:33;8.07;;;5.07;;
1775;SDS011;885;42.626;23.200;2022-10-16T01:26:23;5.00;;;4.60;;
1775;SDS011;885;42.626;23.200;2022-10-16T01:29:05;10.03;;;6.80;;
1775;SDS011;885;42.626;23.200;2022-10-16T01:31:39;10.37;;;9.03;;
1775;SDS011;885;42.626;23.200;2022-10-16T01:34:11;8.33;;;6.50;;
1775;SDS011;885;42.626;23.200;2022-10-16T01:36:45;6.03;;;4.93;;
1775;SDS011;885;42.626;23.200;2022-10-16T01:39:22;6.30;;;5.37;;
1775;SDS011;885;42.626;23.200;2022-10-16T01:42:01;6.23;;;4.60;;
1775;SDS011;885;42.626;23.200;2022-10-16T01:44:34;5.60;;;4.97;;
1775;SDS011;885;42.626;23.200;2022-10-16T01:47:06;4.93;;;4.50;;
1775;SDS011;885;42.626;23.200;2022-10-16T01:49:48;11.00;;;4.87;;
1775;SDS011;885;42.626;23.200;2022-10-16T01:52:19;5.30;;;4.47;;
1775;SDS011;885;42.626;23.200;2022-10-16T01:54:49;5.27;;;4.77;;
1775;SDS011;885;42.626;23.200;2022-10-16T01:57:19;6.87;;;5.10;;
1775;SDS011;885;42.626;23.200;2022-10-16T01:59:49;6.20;;;4.73;;
1775;SDS011;885;42.626;23.200;2022-10-16T02:02:19;5.43;;;4.93;;
1775;SDS011;885;42.626;23.200;2022-10-16T02:07:38;6.50;;;5.07;;
1775;SDS011;885;42.626;23.200;2022-10-16T02:10:07;5.30;;;4.80;;
1775;SDS011;885;42.626;23.200;2022-10-16T02:12:35;6.90;;;4.87;;
1775;SDS011;885;42.626;23.200;2022-10-16T02:15:07;4.73;;;4.33;;
1775;SDS011;885;42.626;23.200;2022-10-16T02:17:34;5.50;;;4.97;;
1775;SDS011;885;42.626;23.200;2022-10-16T02:20:02;5.93;;;5.20;;
1775;SDS011;885;42.626;23.200;2022-10-16T02:22:32;5.27;;;4.20;;
1775;SDS011;885;42.626;23.200;2022-10-16T02:25:01;5.10;;;4.40;;
1775;SDS011;885;42.626;23.200;2022-10-16T02:27:35;7.13;;;5.20;;
1775;SDS011;885;42.626;23.200;2022-10-16T02:30:19;5.87;;;5.20;;
1775;SDS011;885;42.626;23.200;2022-10-16T02:32:50;7.10;;;4.90;;
1775;SDS011;885;42.626;23.200;2022-10-16T02:35:19;8.63;;;5.00;;
1775;SDS011;885;42.626;23.200;2022-10-16T02:37:49;6.00;;;5.10;;
1775;SDS011;885;42.626;23.200;2022-10-16T02:40:17;6.80;;;5.80;;
1775;SDS011;885;42.626;23.200;2022-10-16T02:42:49;6.80;;;5.27;;
1775;SDS011;885;42.626;23.200;2022-10-16T02:45:18;8.93;;;4.40;;
1775;SDS011;885;42.626;23.200;2022-10-16T02:47:58;9.97;;;5.83;;
1775;SDS011;885;42.626;23.200;2022-10-16T02:50:25;6.67;;;5.50;;
1775;SDS011;885;42.626;23.200;2022-10-16T02:52:57;6.23;;;5.60;;
1775;SDS011;885;42.626;23.200;2022-10-16T02:55:37;7.27;;;6.07;;
1775;SDS011;885;42.626;23.200;2022-10-16T02:58:06;6.60;;;5.27;;
1775;SDS011;885;42.626;23.200;2022-10-16T03:00:34;8.97;;;6.70;;
1775;SDS011;885;42.626;23.200;2022-10-16T03:03:01;9.83;;;5.60;;
1775;SDS011;885;42.626;23.200;2022-10-16T03:05:28;7.33;;;6.03;;
1775;SDS011;885;42.626;23.200;2022-10-16T03:08:04;6.63;;;5.70;;
1775;SDS011;885;42.626;23.200;2022-10-16T03:10:34;8.30;;;6.30;;
1775;SDS011;885;42.626;23.200;2022-10-16T03:13:01;7.43;;;6.43;;
1775;SDS011;885;42.626;23.200;2022-10-16T03:15:32;5.33;;;4.83;;
1775;SDS011;885;42.626;23.200;2022-10-16T03:18:00;7.13;;;5.70;;
1775;SDS011;885;42.626;23.200;2022-10-16T03:20:27;7.10;;;5.33;;
1775;SDS011;885;42.626;23.200;2022-10-16T03:22:53;5.13;;;4.63;;
1775;SDS011;885;42.626;23.200;2022-10-16T03:25:20;5.43;;;4.90;;
1775;SDS011;885;42.626;23.200;2022-10-16T03:27:47;5.47;;;4.97;;
1775;SDS011;885;42.626;23.200;2022-10-16T03:30:14;8.60;;;6.07;;
1775;SDS011;885;42.626;23.200;2022-10-16T03:32:41;7.37;;;6.00;;
1775;SDS011;885;42.626;23.200;2022-10-16T03:35:11;5.50;;;4.50;;
1775;SDS011;885;42.626;23.200;2022-10-16T03:37:38;5.87;;;5.27;;
1775;SDS011;885;42.626;23.200;2022-10-16T03:40:05;7.03;;;5.67;;
1775;SDS011;885;42.626;23.200;2022-10-16T03:42:32;6.20;;;5.60;;
1775;SDS011;885;42.626;23.200;2022-10-16T03:45:02;5.67;;;4.70;;
1775;SDS011;885;42.626;23.200;2022-10-16T03:50:25;4.60;;;4.20;;
1775;SDS011;885;42.626;23.200;2022-10-16T03:52:52;5.87;;;4.30;;
1775;SDS011;885;42.626;23.200;2022-10-16T03:55:19;5.97;;;5.13;;
1775;SDS011;885;42.626;23.200;2022-10-16T03:57:47;6.27;;;5.40;;
1775;SDS011;885;42.626;23.200;2022-10-16T04:00:14;6.23;;;5.37;;
1775;SDS011;885;42.626;23.200;2022-10-16T04:02:44;6.63;;;5.60;;
1775;SDS011;885;42.626;23.200;2022-10-16T04:05:19;6.73;;;4.80;;
1775;SDS011;885;42.626;23.200;2022-10-16T04:07:47;4.50;;;4.10;;
1775;SDS011;885;42.626;23.200;2022-10-16T04:10:14;6.97;;;4.23;;
1775;SDS011;885;42.626;23.200;2022-10-16T04:12:45;5.37;;;4.87;;
1775;SDS011;885;42.626;23.200;2022-10-16T04:15:15;6.00;;;4.40;;
1775;SDS011;885;42.626;23.200;2022-10-16T04:17:44;6.10;;;4.77;;
1775;SDS011;885;42.626;23.200;2022-10-16T04:20:13;7.33;;;4.67;;
1775;SDS011;885;42.626;23.200;2022-10-16T04:22:43;4.50;;;4.10;;
1775;SDS011;885;42.626;23.200;2022-10-16T04:25:11;5.37;;;4.00;;
1775;SDS011;885;42.626;23.200;2022-10-16T04:27:38;4.97;;;3.80;;
1775;SDS011;885;42.626;23.200;2022-10-16T04:30:06;5.13;;;3.93;;
1775;SDS011;885;42.626;23.200;2022-10-16T04:32:33;8.30;;;4.13;;
1775;SDS011;885;42.626;23.200;2022-10-16T04:35:00;4.50;;;3.83;;
1775;SDS011;885;42.626;23.200;2022-10-16T04:37:28;4.27;;;3.10;;
1775;SDS011;885;42.626;23.200;2022-10-16T04:39:54;4.03;;;3.63;;
1775;SDS011;885;42.626;23.200;2022-10-16T04:42:23;4.43;;;3.90;;
1775;SDS011;885;42.626;23.200;2022-10-16T04:44:49;6.43;;;4.20;;
1775;SDS011;885;42.626;23.200;2022-10-16T04:47:16;5.57;;;4.20;;
1775;SDS011;885;42.626;23.200;2022-10-16T04:49:43;4.70;;;4.20;;
1775;SDS011;885;42.626;23.200;2022-10-16T04:52:10;6.57;;;4.33;;
1775;SDS011;885;42.626;23.200;2022-10-16T04:54:37;4.50;;;4.10;;
1775;SDS011;885;42.626;23.200;2022-10-16T04:57:03;4.90;;;4.40;;
1775;SDS011;885;42.626;23.200;2022-10-16T04:59:32;4.80;;;4.30;;
1775;SDS011;885;42.626;23.200;2022-10-16T05:01:59;5.43;;;3.80;;
1775;SDS011;885;42.626;23.200;2022-10-16T05:04:26;4.77;;;3.83;;
1775;SDS011;885;42.626;23.200;2022-10-16T05:06:53;5.13;;;4.20;;
1775;SDS011;885;42.626;23.200;2022-10-16T05:09:19;4.87;;;4.23;;
1775;SDS011;885;42.626;23.200;2022-10-16T05:11:46;4.37;;;3.97;;
1775;SDS011;885;42.626;23.200;2022-10-16T05:14:13;5.13;;;4.60;;
1775;SDS011;885;42.626;23.200;2022-10-16T05:16:41;5.80;;;4.57;;
1775;SDS011;885;42.626;23.200;2022-10-16T05:19:08;5.50;;;4.20;;
1775;SDS011;885;42.626;23.200;2022-10-16T05:21:35;5.67;;;4.37;;
1775;SDS011;885;42.626;23.200;2022-10-16T05:24:02;4.70;;;3.53;;
1775;SDS011;885;42.626;23.200;2022-10-16T05:26:29;4.23;;;3.80;;
1775;SDS011;885;42.626;23.200;2022-10-16T05:28:56;4.60;;;3.90;;
1775;SDS011;885;42.626;23.200;2022-10-16T05:31:22;4.30;;;3.50;;
1775;SDS011;885;42.626;23.200;2022-10-16T05:33:51;7.00;;;4.73;;
1775;SDS011;885;42.626;23.200;2022-10-16T05:36:17;6.37;;;4.27;;
1775;SDS011;885;42.626;23.200;2022-10-16T05:38:44;5.50;;;4.63;;
1775;SDS011;885;42.626;23.200;2022-10-16T05:41:11;25.23;;;18.07;;
1775;SDS011;885;42.626;23.200;2022-10-16T05:43:38;12.63;;;9.80;;
1775;SDS011;885;42.626;23.200;2022-10-16T05:46:05;7.43;;;6.43;;
1775;SDS011;885;42.626;23.200;2022-10-16T05:48:32;9.13;;;7.70;;
1775;SDS011;885;42.626;23.200;2022-10-16T05:51:01;8.53;;;5.37;;
1775;SDS011;885;42.626;23.200;2022-10-16T05:53:29;5.47;;;4.67;;
1775;SDS011;885;42.626;23.200;2022-10-16T05:55:58;4.67;;;4.03;;
1775;SDS011;885;42.626;23.200;2022-10-16T05:58:25;7.50;;;4.23;;
1775;SDS011;885;42.626;23.200;2022-10-16T06:00:55;5.60;;;4.30;;
1775;SDS011;885;42.626;23.200;2022-10-16T06:03:22;8.47;;;4.47;;
1775;SDS011;885;42.626;23.200;2022-10-16T06:05:49;4.87;;;4.10;;
1775;SDS011;885;42.626;23.200;2022-10-16T06:08:17;11.97;;;5.37;;
1775;SDS011;885;42.626;23.200;2022-10-16T06:10:45;6.80;;;5.10;;
1775;SDS011;885;42.626;23.200;2022-10-16T06:13:12;5.40;;;4.67;;
1775;SDS011;885;42.626;23.200;2022-10-16T06:15:39;6.47;;;5.87;;
1775;SDS011;885;42.626;23.200;2022-10-16T06:18:07;5.40;;;4.70;;
1775;SDS011;885;42.626;23.200;2022-10-16T06:20:34;8.30;;;5.03;;
1775;SDS011;885;42.626;23.200;2022-10-16T06:23:01;5.77;;;5.27;;
1775;SDS011;885;42.626;23.200;2022-10-16T06:25:30;5.73;;;5.03;;
1775;SDS011;885;42.626;23.200;2022-10-16T06:27:57;5.77;;;4.83;;
1775;SDS011;885;42.626;23.200;2022-10-16T06:30:24;5.20;;;4.67;;
1775;SDS011;885;42.626;23.200;2022-10-16T06:32:51;6.23;;;4.93;;
1775;SDS011;885;42.626;23.200;2022-10-16T06:35:18;5.97;;;5.30;;
1775;SDS011;885;42.626;23.200;2022-10-16T06:37:44;5.63;;;4.97;;
1775;SDS011;885;42.626;23.200;2022-10-16T06:40:11;5.63;;;5.13;;
1775;SDS011;885;42.626;23.200;2022-10-16T06:42:41;6.50;;;5.50;;
1775;SDS011;885;42.626;23.200;2022-10-16T06:45:08;6.70;;;5.07;;
1775;SDS011;885;42.626;23.200;2022-10-16T06:47:35;7.67;;;6.83;;
1775;SDS011;885;42.626;23.200;2022-10-16T06:50:03;6.03;;;5.40;;
1775;SDS011;885;42.626;23.200;2022-10-16T06:52:31;7.60;;;5.77;;
1775;SDS011;885;42.626;23.200;2022-10-16T06:54:58;6.70;;;6.07;;
1775;SDS011;885;42.626;23.200;2022-10-16T06:57:25;10.50;;;7.00;;
1775;SDS011;885;42.626;23.200;2022-10-16T06:59:53;12.10;;;7.13;;
1775;SDS011;885;42.626;23.200;2022-10-16T07:02:20;8.77;;;7.27;;
1775;SDS011;885;42.626;23.200;2022-10-16T07:04:47;7.47;;;6.07;;
1775;SDS011;885;42.626;23.200;2022-10-16T07:07:13;9.97;;;7.57;;
1775;SDS011;885;42.626;23.200;2022-10-16T07:09:40;12.80;;;8.10;;
1775;SDS011;885;42.626;23.200;2022-10-16T07:12:07;10.87;;;8.37;;
1775;SDS011;885;42.626;23.200;2022-10-16T07:14:34;10.07;;;7.60;;
1775;SDS011;885;42.626;23.200;2022-10-16T07:17:02;8.17;;;7.07;;
1775;SDS011;885;42.626;23.200;2022-10-16T07:19:29;10.60;;;7.20;;
1775;SDS011;885;42.626;23.200;2022-10-16T07:21:56;6.43;;;5.83;;
1775;SDS011;885;42.626;23.200;2022-10-16T07:24:23;9.07;;;6.17;;
1775;SDS011;885;42.626;23.200;2022-10-16T07:26:50;9.43;;;5.63;;
1775;SDS011;885;42.626;23.200;2022-10-16T07:29:18;7.37;;;6.63;;
1775;SDS011;885;42.626;23.200;2022-10-16T07:31:45;15.73;;;9.73;;
1775;SDS011;885;42.626;23.200;2022-10-16T07:34:14;10.23;;;9.03;;
1775;SDS011;885;42.626;23.200;2022-10-16T07:36:43;13.93;;;11.50;;
1775;SDS011;885;42.626;23.200;2022-10-16T07:39:11;13.10;;;11.70;;
1775;SDS011;885;42.626;23.200;2022-10-16T07:41:37;13.80;;;12.23;;
1775;SDS011;885;42.626;23.200;2022-10-16T07:44:04;18.50;;;14.40;;
1775;SDS011;885;42.626;23.200;2022-10-16T07:46:31;18.20;;;12.43;;
1775;SDS011;885;42.626;23.200;2022-10-16T07:49:01;15.37;;;13.77;;
1775;SDS011;885;42.626;23.200;2022-10-16T07:51:30;17.87;;;13.03;;
1775;SDS011;885;42.626;23.200;2022-10-16T07:53:57;18.90;;;14.77;;
1775;SDS011;885;42.626;23.200;2022-10-16T07:56:24;18.23;;;15.20;;
1775;SDS011;885;42.626;23.200;2022-10-16T07:58:51;14.27;;;12.23;;
1775;SDS011;885;42.626;23.200;2022-10-16T08:01:18;14.30;;;12.90;;
1775;SDS011;885;42.626;23.200;2022-10-16T08:03:45;15.73;;;14.23;;
1775;SDS011;885;42.626;23.200;2022-10-16T08:06:14;14.50;;;12.87;;
1775;SDS011;885;42.626;23.200;2022-10-16T08:08:42;14.20;;;12.70;;
1775;SDS011;885;42.626;23.200;2022-10-16T08:11:09;14.77;;;13.17;;
1775;SDS011;885;42.626;23.200;2022-10-16T08:13:36;16.53;;;13.00;;
1775;SDS011;885;42.626;23.200;2022-10-16T08:16:03;15.93;;;12.60;;
1775;SDS011;885;42.626;23.200;2022-10-16T08:18:33;13.87;;;10.93;;
1775;SDS011;885;42.626;23.200;2022-10-16T08:21:00;12.53;;;11.20;;
1775;SDS011;885;42.626;23.200;2022-10-16T08:23:28;15.00;;;11.90;;
1775;SDS011;885;42.626;23.200;2022-10-16T08:26:01;11.40;;;10.30;;
1775;SDS011;885;42.626;23.200;2022-10-16T08:28:30;11.70;;;10.50;;
1775;SDS011;885;42.626;23.200;2022-10-16T08:31:04;18.57;;;10.60;;
1775;SDS011;885;42.626;23.200;2022-10-16T08:33:31;12.40;;;10.80;;
1775;SDS011;885;42.626;23.200;2022-10-16T08:35:59;10.57;;;9.40;;
1775;SDS011;885;42.626;23.200;2022-10-16T08:38:27;12.37;;;10.60;;
1775;SDS011;885;42.626;23.200;2022-10-16T08:40:55;15.83;;;11.83;;
1775;SDS011;885;42.626;23.200;2022-10-16T08:43:43;10.87;;;9.50;;
1775;SDS011;885;42.626;23.200;2022-10-16T08:46:29;13.73;;;10.47;;
1775;SDS011;885;42.626;23.200;2022-10-16T08:49:05;11.20;;;10.17;;
1775;SDS011;885;42.626;23.200;2022-10-16T08:51:37;11.33;;;9.40;;
1775;SDS011;885;42.626;23.200;2022-10-16T08:54:05;14.53;;;10.87;;
1775;SDS011;885;42.626;23.200;2022-10-16T08:56:40;11.73;;;10.27;;
1775;SDS011;885;42.626;23.200;2022-10-16T08:59:10;11.70;;;10.07;;
1775;SDS011;885;42.626;23.200;2022-10-16T09:01:41;10.50;;;9.60;;
1775;SDS011;885;42.626;23.200;2022-10-16T09:04:21;12.47;;;10.73;;
1775;SDS011;885;42.626;23.200;2022-10-16T09:07:09;14.23;;;10.90;;
1775;SDS011;885;42.626;23.200;2022-10-16T09:09:49;13.47;;;10.50;;
1775;SDS011;885;42.626;23.200;2022-10-16T09:12:28;13.00;;;9.97;;
1775;SDS011;885;42.626;23.200;2022-10-16T09:15:03;12.43;;;9.87;;
1775;SDS011;885;42.626;23.200;2022-10-16T09:17:42;12.53;;;9.87;;
1775;SDS011;885;42.626;23.200;2022-10-16T09:20:19;10.70;;;9.03;;
1775;SDS011;885;42.626;23.200;2022-10-16T09:22:55;10.20;;;8.90;;
1775;SDS011;885;42.626;23.200;2022-10-16T09:25:39;12.03;;;8.70;;
1775;SDS011;885;42.626;23.200;2022-10-16T09:28:12;8.30;;;7.50;;
1775;SDS011;885;42.626;23.200;2022-10-16T09:30:38;15.13;;;7.37;;
1775;SDS011;885;42.626;23.200;2022-10-16T09:33:06;9.70;;;8.80;;
1775;SDS011;885;42.626;23.200;2022-10-16T09:35:36;7.80;;;7.00;;
1775;SDS011;885;42.626;23.200;2022-10-16T09:38:05;7.83;;;5.47;;
1775;SDS011;885;42.626;23.200;2022-10-16T09:40:33;7.03;;;5.17;;
1775;SDS011;885;42.626;23.200;2022-10-16T09:43:03;6.20;;;4.87;;
1775;SDS011;885;42.626;23.200;2022-10-16T09:45:43;5.27;;;4.43;;
1775;SDS011;885;42.626;23.200;2022-10-16T09:48:19;6.97;;;5.33;;
1775;SDS011;885;42.626;23.200;2022-10-16T09:50:54;10.10;;;5.20;;
1775;SDS011;885;42.626;23.200;2022-10-16T09:53:22;5.50;;;5.00;;
1775;SDS011;885;42.626;23.200;2022-10-16T09:55:50;7.13;;;5.07;;
1775;SDS011;885;42.626;23.200;2022-10-16T09:58:20;4.70;;;4.30;;
1775;SDS011;885;42.626;23.200;2022-10-16T10:00:49;5.87;;;4.53;;
1775;SDS011;885;42.626;23.200;2022-10-16T10:03:25;5.80;;;4.57;;
1775;SDS011;885;42.626;23.200;2022-10-16T10:06:03;6.43;;;4.30;;
1775;SDS011;885;42.626;23.200;2022-10-16T10:08:41;4.57;;;4.10;;
1775;SDS011;885;42.626;23.200;2022-10-16T10:11:18;4.20;;;3.80;;
1775;SDS011;885;42.626;23.200;2022-10-16T10:13:46;6.33;;;4.00;;
1775;SDS011;885;42.626;23.200;2022-10-16T10:16:23;6.03;;;4.90;;
1775;SDS011;885;42.626;23.200;2022-10-16T10:18:57;5.17;;;4.47;;
1775;SDS011;885;42.626;23.200;2022-10-16T10:21:24;4.90;;;4.47;;
1775;SDS011;885;42.626;23.200;2022-10-16T10:23:54;4.57;;;3.97;;
1775;SDS011;885;42.626;23.200;2022-10-16T10:26:23;4.20;;;3.80;;
1775;SDS011;885;42.626;23.200;2022-10-16T10:28:57;5.03;;;4.53;;
1775;SDS011;885;42.626;23.200;2022-10-16T10:31:34;7.80;;;4.30;;
1775;SDS011;885;42.626;23.200;2022-10-16T10:34:11;6.10;;;4.63;;
1775;SDS011;885;42.626;23.200;2022-10-16T10:37:01;4.63;;;4.10;;
1775;SDS011;885;42.626;23.200;2022-10-16T10:39:35;5.10;;;4.40;;
1775;SDS011;885;42.626;23.200;2022-10-16T10:42:13;5.90;;;4.30;;
1775;SDS011;885;42.626;23.200;2022-10-16T10:47:58;10.20;;;5.03;;
1775;SDS011;885;42.626;23.200;2022-10-16T10:50:43;6.53;;;4.67;;
1775;SDS011;885;42.626;23.200;2022-10-16T10:53:21;6.17;;;4.37;;
1775;SDS011;885;42.626;23.200;2022-10-16T10:56:02;5.00;;;4.50;;
1775;SDS011;885;42.626;23.200;2022-10-16T10:58:52;5.90;;;4.47;;
1775;SDS011;885;42.626;23.200;2022-10-16T11:01:34;6.43;;;4.10;;
1775;SDS011;885;42.626;23.200;2022-10-16T11:04:17;6.40;;;4.13;;
1775;SDS011;885;42.626;23.200;2022-10-16T11:06:55;4.30;;;3.90;;
1775;SDS011;885;42.626;23.200;2022-10-16T11:09:25;4.70;;;3.90;;
1775;SDS011;885;42.626;23.200;2022-10-16T11:11:59;4.93;;;3.73;;
1775;SDS011;885;42.626;23.200;2022-10-16T11:14:33;4.23;;;3.77;;
1775;SDS011;885;42.626;23.200;2022-10-16T11:17:07;5.77;;;4.60;;
1775;SDS011;885;42.626;23.200;2022-10-16T11:19:39;4.40;;;3.90;;
1775;SDS011;885;42.626;23.200;2022-10-16T11:22:12;4.27;;;3.97;;
1775;SDS011;885;42.626;23.200;2022-10-16T11:24:45;4.40;;;3.53;;
1775;SDS011;885;42.626;23.200;2022-10-16T11:27:16;5.67;;;3.73;;
1775;SDS011;885;42.626;23.200;2022-10-16T11:29:49;5.37;;;4.40;;
1775;SDS011;885;42.626;23.200;2022-10-16T11:32:24;3.83;;;3.33;;
1775;SDS011;885;42.626;23.200;2022-10-16T11:34:57;6.10;;;3.20;;
1775;SDS011;885;42.626;23.200;2022-10-16T11:37:29;3.70;;;3.40;;
1775;SDS011;885;42.626;23.200;2022-10-16T11:40:00;3.80;;;3.50;;
1775;SDS011;885;42.626;23.200;2022-10-16T11:42:44;6.13;;;4.27;;
1775;SDS011;885;42.626;23.200;2022-10-16T11:45:23;3.70;;;3.40;;
1775;SDS011;885;42.626;23.200;2022-10-16T11:47:58;4.47;;;3.53;;
1775;SDS011;885;42.626;23.200;2022-10-16T11:50:34;4.20;;;3.60;;
1775;SDS011;885;42.626;23.200;2022-10-16T11:53:08;4.20;;;3.63;;
1775;SDS011;885;42.626;23.200;2022-10-16T11:55:43;4.60;;;3.57;;
1775;SDS011;885;42.626;23.200;2022-10-16T11:58:13;3.87;;;3.53;;
1775;SDS011;885;42.626;23.200;2022-10-16T12:00:47;3.83;;;3.10;;
1775;SDS011;885;42.626;23.200;2022-10-16T12:03:24;6.63;;;4.30;;
1775;SDS011;885;42.626;23.200;2022-10-16T12:05:58;5.17;;;3.50;;
1775;SDS011;885;42.626;23.200;2022-10-16T12:08:37;4.63;;;3.33;;
1775;SDS011;885;42.626;23.200;2022-10-16T12:11:08;4.47;;;3.03;;
1775;SDS011;885;42.626;23.200;2022-10-16T12:13:46;3.60;;;3.30;;
1775;SDS011;885;42.626;23.200;2022-10-16T12:16:20;4.90;;;3.47;;
1775;SDS011;885;42.626;23.200;2022-10-16T12:19:02;4.20;;;3.47;;
1775;SDS011;885;42.626;23.200;2022-10-16T12:21:36;3.80;;;3.13;;
1775;SDS011;885;42.626;23.200;2022-10-16T12:24:04;4.00;;;3.10;;
1775;SDS011;885;42.626;23.200;2022-10-16T12:26:32;4.37;;;3.13;;
1775;SDS011;885;42.626;23.200;2022-10-16T12:29:13;3.23;;;2.93;;
1775;SDS011;885;42.626;23.200;2022-10-16T12:31:48;3.40;;;3.13;;
1775;SDS011;885;42.626;23.200;2022-10-16T12:34:21;2.70;;;2.50;;
1775;SDS011;885;42.626;23.200;2022-10-16T12:36:53;12.47;;;3.70;;
1775;SDS011;885;42.626;23.200;2022-10-16T12:39:21;3.87;;;2.73;;
1775;SDS011;885;42.626;23.200;2022-10-16T12:42:00;3.50;;;2.93;;
1775;SDS011;885;42.626;23.200;2022-10-16T12:44:31;4.77;;;2.87;;
1775;SDS011;885;42.626;23.200;2022-10-16T12:46:59;4.10;;;2.80;;
1775;SDS011;885;42.626;23.200;2022-10-16T12:49:32;3.17;;;2.87;;
1775;SDS011;885;42.626;23.200;2022-10-16T12:52:03;3.10;;;2.70;;
1775;SDS011;885;42.626;23.200;2022-10-16T12:54:31;3.27;;;2.70;;
1775;SDS011;885;42.626;23.200;2022-10-16T12:57:10;3.07;;;2.87;;
1775;SDS011;885;42.626;23.200;2022-10-16T12:59:59;3.37;;;3.00;;
1775;SDS011;885;42.626;23.200;2022-10-16T13:02:39;3.03;;;2.73;;
1775;SDS011;885;42.626;23.200;2022-10-16T13:05:23;3.40;;;2.80;;
1775;SDS011;885;42.626;23.200;2022-10-16T13:08:01;3.03;;;2.70;;
1775;SDS011;885;42.626;23.200;2022-10-16T13:10:45;3.70;;;2.83;;
1775;SDS011;885;42.626;23.200;2022-10-16T13:13:31;3.00;;;2.70;;
1775;SDS011;885;42.626;23.200;2022-10-16T13:16:18;3.83;;;3.00;;
1775;SDS011;885;42.626;23.200;2022-10-16T13:18:55;3.40;;;2.63;;
1775;SDS011;885;42.626;23.200;2022-10-16T13:21:39;5.23;;;2.80;;
1775;SDS011;885;42.626;23.200;2022-10-16T13:24:19;2.67;;;2.47;;
1775;SDS011;885;42.626;23.200;2022-10-16T13:26:57;3.67;;;2.70;;
1775;SDS011;885;42.626;23.200;2022-10-16T13:29:32;2.80;;;2.40;;
1775;SDS011;885;42.626;23.200;2022-10-16T13:32:00;5.30;;;2.90;;
1775;SDS011;885;42.626;23.200;2022-10-16T13:34:41;3.33;;;2.43;;
1775;SDS011;885;42.626;23.200;2022-10-16T13:37:17;3.27;;;2.97;;
1775;SDS011;885;42.626;23.200;2022-10-16T13:39:44;3.03;;;2.73;;
1775;SDS011;885;42.626;23.200;2022-10-16T13:42:13;2.87;;;2.57;;
1775;SDS011;885;42.626;23.200;2022-10-16T13:44:50;2.70;;;2.47;;
1775;SDS011;885;42.626;23.200;2022-10-16T13:47:18;7.00;;;2.90;;
1775;SDS011;885;42.626;23.200;2022-10-16T13:49:47;4.73;;;3.40;;
1775;SDS011;885;42.626;23.200;2022-10-16T13:52:28;3.60;;;2.97;;
1775;SDS011;885;42.626;23.200;2022-10-16T13:54:54;6.50;;;3.20;;
1775;SDS011;885;42.626;23.200;2022-10-16T13:57:22;3.60;;;3.00;;
1775;SDS011;885;42.626;23.200;2022-10-16T13:59:49;3.40;;;2.97;;
1775;SDS011;885;42.626;23.200;2022-10-16T14:02:19;5.33;;;3.50;;
1775;SDS011;885;42.626;23.200;2022-10-16T14:04:48;3.50;;;3.20;;
1775;SDS011;885;42.626;23.200;2022-10-16T14:07:18;3.53;;;3.23;;
1775;SDS011;885;42.626;23.200;2022-10-16T14:09:51;4.83;;;3.57;;
1775;SDS011;885;42.626;23.200;2022-10-16T14:12:18;10.13;;;3.70;;
1775;SDS011;885;42.626;23.200;2022-10-16T14:14:46;10.97;;;10.13;;
1775;SDS011;885;42.626;23.200;2022-10-16T14:17:16;14.83;;;12.43;;
1775;SDS011;885;42.626;23.200;2022-10-16T14:19:46;5.00;;;4.50;;
1775;SDS011;885;42.626;23.200;2022-10-16T14:22:22;8.50;;;6.80;;
1775;SDS011;885;42.626;23.200;2022-10-16T14:24:55;7.80;;;7.00;;
1775;SDS011;885;42.626;23.200;2022-10-16T14:27:27;3.10;;;2.83;;
1775;SDS011;885;42.626;23.200;2022-10-16T14:30:08;9.07;;;8.17;;
1775;SDS011;885;42.626;23.200;2022-10-16T14:32:40;9.30;;;8.40;;
1775;SDS011;885;42.626;23.200;2022-10-16T14:35:21;6.03;;;4.20;;
1775;SDS011;885;42.626;23.200;2022-10-16T14:37:51;3.63;;;3.00;;
1775;SDS011;885;42.626;23.200;2022-10-16T14:40:19;4.50;;;3.20;;
1775;SDS011;885;42.626;23.200;2022-10-16T14:42:48;6.73;;;3.50;;
1775;SDS011;885;42.626;23.200;2022-10-16T14:45:18;5.23;;;3.57;;
1775;SDS011;885;42.626;23.200;2022-10-16T14:47:50;3.80;;;3.40;;
1775;SDS011;885;42.626;23.200;2022-10-16T14:50:20;5.97;;;5.47;;
1775;SDS011;885;42.626;23.200;2022-10-16T14:52:47;4.17;;;3.77;;
1775;SDS011;885;42.626;23.200;2022-10-16T14:55:14;3.43;;;3.13;;
1775;SDS011;885;42.626;23.200;2022-10-16T14:57:42;4.37;;;3.27;;
1775;SDS011;885;42.626;23.200;2022-10-16T15:00:13;7.30;;;5.80;;
1775;SDS011;885;42.626;23.200;2022-10-16T15:02:43;10.00;;;8.37;;
1775;SDS011;885;42.626;23.200;2022-10-16T15:05:12;7.20;;;6.50;;
1775;SDS011;885;42.626;23.200;2022-10-16T15:07:40;10.73;;;9.70;;
1775;SDS011;885;42.626;23.200;2022-10-16T15:10:07;8.07;;;5.60;;
1775;SDS011;885;42.626;23.200;2022-10-16T15:12:34;6.67;;;3.77;;
1775;SDS011;885;42.626;23.200;2022-10-16T15:15:05;4.20;;;3.80;;
1775;SDS011;885;42.626;23.200;2022-10-16T15:17:52;8.70;;;6.77;;
1775;SDS011;885;42.626;23.200;2022-10-16T15:20:21;3.90;;;3.50;;
1775;SDS011;885;42.626;23.200;2022-10-16T15:22:49;4.10;;;3.50;;
1775;SDS011;885;42.626;23.200;2022-10-16T15:25:18;7.77;;;5.67;;
1775;SDS011;885;42.626;23.200;2022-10-16T15:27:59;5.33;;;3.73;;
1775;SDS011;885;42.626;23.200;2022-10-16T15:30:29;8.37;;;7.27;;
1775;SDS011;885;42.626;23.200;2022-10-16T15:32:55;6.33;;;4.57;;
1775;SDS011;885;42.626;23.200;2022-10-16T15:35:22;5.33;;;3.60;;
1775;SDS011;885;42.626;23.200;2022-10-16T15:37:49;8.60;;;4.57;;
1775;SDS011;885;42.626;23.200;2022-10-16T15:40:17;8.30;;;6.80;;
1775;SDS011;885;42.626;23.200;2022-10-16T15:42:45;5.57;;;4.27;;
1775;SDS011;885;42.626;23.200;2022-10-16T15:45:12;4.47;;;4.07;;
1775;SDS011;885;42.626;23.200;2022-10-16T15:47:41;4.67;;;3.80;;